Time;durP1;ratioP1;P1;durP2;ratioP2;P2;SDS_P1;SDS_P2;PMS_P1;PMS_P2;Temp;Humidity;BMP_temperature;BMP_pressure;BME280_temperature;BME280_humidity;BME280_pressure;Samples;Min_cycle;Max_cycle;Signal;HPM_P1;HPM_P2
2023/04/24 00:00:56;;;;;;;6.55;3.40;;;11.20;96.80;;;;;;5117394;28;20028;-73
2023/04/24 00:03:23;;;;;;;6.57;3.55;;;11.20;96.90;;;;;;5117314;28;20028;-73
2023/04/24 00:05:49;;;;;;;4.50;3.00;;;11.20;96.80;;;;;;5117107;28;20048;-73
2023/04/24 00:08:15;;;;;;;6.18;3.03;;;11.20;96.70;;;;;;5117175;28;20024;-73
2023/04/24 00:10:41;;;;;;;5.50;3.22;;;11.20;96.80;;;;;;5117132;28;20473;-73
2023/04/24 00:13:07;;;;;;;4.90;3.03;;;11.20;96.90;;;;;;5117113;28;20079;-73
2023/04/24 00:15:33;;;;;;;6.10;3.05;;;11.20;96.90;;;;;;5099329;28;20020;-73
2023/04/24 00:17:58;;;;;;;6.38;3.60;;;11.20;97.00;;;;;;5117154;28;20032;-73
2023/04/24 00:20:24;;;;;;;7.13;4.13;;;11.20;97.20;;;;;;5116037;28;20032;-74
2023/04/24 00:22:49;;;;;;;6.53;3.53;;;11.20;97.40;;;;;;5116917;28;20020;-73
2023/04/24 00:25:15;;;;;;;7.40;4.22;;;11.20;97.40;;;;;;5116871;28;20032;-73
2023/04/24 00:27:41;;;;;;;9.95;4.22;;;11.10;97.50;;;;;;5116844;28;20028;-73
2023/04/24 00:30:07;;;;;;;9.25;4.65;;;11.10;97.70;;;;;;5116686;28;20039;-73
2023/04/24 00:32:33;;;;;;;8.35;4.82;;;11.10;97.70;;;;;;5116745;28;20024;-73
2023/04/24 00:34:58;;;;;;;9.27;4.90;;;11.10;97.80;;;;;;5115722;28;20123;-73
2023/04/24 00:37:24;;;;;;;9.90;4.80;;;11.10;97.90;;;;;;5115698;28;20028;-73
2023/04/24 00:39:49;;;;;;;9.05;4.65;;;11.10;98.00;;;;;;5115710;28;20028;-73
2023/04/24 00:42:15;;;;;;;9.13;4.95;;;11.00;97.90;;;;;;5115591;28;20028;-73
2023/04/24 00:44:41;;;;;;;11.30;5.40;;;11.00;98.00;;;;;;5116492;28;20039;-73
2023/04/24 00:47:07;;;;;;;10.52;4.88;;;11.00;98.10;;;;;;5098623;28;20039;-73
2023/04/24 00:49:33;;;;;;;9.73;5.45;;;11.00;98.30;;;;;;5116315;28;20024;-73
2023/04/24 00:51:59;;;;;;;11.30;6.38;;;10.90;98.70;;;;;;5115434;28;20028;-73
2023/04/24 00:54:24;;;;;;;14.48;6.63;;;10.90;98.30;;;;;;5116332;28;20032;-73
2023/04/24 00:56:51;;;;;;;13.85;6.07;;;10.90;98.40;;;;;;5116304;28;20032;-73
2023/04/24 00:59:17;;;;;;;13.15;6.47;;;10.90;98.80;;;;;;5116244;28;20024;-73
2023/04/24 01:01:44;;;;;;;11.10;5.50;;;10.80;98.40;;;;;;5116221;28;20472;-73
2023/04/24 01:04:12;;;;;;;16.02;7.00;;;10.80;98.40;;;;;;5114914;28;20055;-74
2023/04/24 01:06:39;;;;;;;14.23;7.20;;;10.90;98.40;;;;;;5115921;28;20044;-73
2023/04/24 01:09:08;;;;;;;13.55;7.07;;;10.80;98.50;;;;;;5115230;28;20028;-73
2023/04/24 01:11:33;;;;;;;14.82;7.03;;;10.80;98.80;;;;;;5116047;28;20020;-73
2023/04/24 01:14:00;;;;;;;14.50;7.07;;;10.80;99.10;;;;;;5115944;28;20084;-73
2023/04/24 01:16:25;;;;;;;15.13;7.38;;;10.70;99.20;;;;;;5114975;28;20088;-73
2023/04/24 01:18:51;;;;;;;14.93;8.02;;;10.70;99.40;;;;;;5115839;28;20091;-73
2023/04/24 01:21:18;;;;;;;14.15;6.85;;;10.70;99.50;;;;;;5114743;28;20476;-73
2023/04/24 01:23:44;;;;;;;13.82;7.43;;;10.70;99.50;;;;;;5114780;28;20074;-73
2023/04/24 01:26:11;;;;;;;15.57;7.40;;;10.70;99.50;;;;;;5115677;28;20058;-73
2023/04/24 01:28:37;;;;;;;13.25;6.97;;;10.70;99.40;;;;;;5114650;28;20024;-73
2023/04/24 01:31:03;;;;;;;16.20;8.52;;;10.70;99.40;;;;;;5114594;28;20070;-73
2023/04/24 01:33:29;;;;;;;14.30;7.45;;;10.60;99.40;;;;;;5115465;28;20029;-73
2023/04/24 01:35:54;;;;;;;13.27;7.40;;;10.60;99.40;;;;;;5115542;28;20016;-73
2023/04/24 01:38:20;;;;;;;14.30;7.90;;;10.60;99.50;;;;;;5114451;28;20034;-73
2023/04/24 01:40:46;;;;;;;13.88;7.43;;;10.60;99.60;;;;;;5115419;28;20028;-73
2023/04/24 01:43:12;;;;;;;14.07;7.50;;;10.50;99.50;;;;;;5114424;28;20020;-73
2023/04/24 01:45:38;;;;;;;11.85;5.65;;;10.50;99.70;;;;;;5115271;28;20066;-73
2023/04/24 01:48:04;;;;;;;15.15;7.97;;;10.50;99.80;;;;;;5115215;28;20039;-73
2023/04/24 01:50:30;;;;;;;16.25;7.85;;;10.50;99.80;;;;;;5115229;28;20455;-73
2023/04/24 01:52:56;;;;;;;14.00;8.10;;;10.50;99.90;;;;;;5114237;28;20020;-73
2023/04/24 01:55:22;;;;;;;20.30;7.93;;;10.50;99.90;;;;;;5115142;28;20024;-73
2023/04/24 01:57:47;;;;;;;18.13;8.02;;;10.40;99.90;;;;;;5115112;28;20028;-73
2023/04/24 02:00:14;;;;;;;17.77;8.23;;;10.40;99.90;;;;;;5114997;28;20020;-73
2023/04/24 02:02:40;;;;;;;16.20;8.20;;;10.40;99.90;;;;;;5115027;28;20032;-73
2023/04/24 02:05:07;;;;;;;17.48;8.98;;;10.40;99.90;;;;;;5113671;28;20082;-73
2023/04/24 02:07:33;;;;;;;14.88;7.78;;;10.40;99.90;;;;;;5115066;28;20389;-73
2023/04/24 02:09:59;;;;;;;17.40;8.25;;;10.40;99.90;;;;;;5114806;28;20024;-73
2023/04/24 02:12:24;;;;;;;17.92;9.25;;;10.40;99.90;;;;;;5113735;28;20048;-73
2023/04/24 02:14:50;;;;;;;18.23;7.95;;;10.40;99.90;;;;;;5114735;28;20060;-73
2023/04/24 02:17:18;;;;;;;19.20;10.05;;;10.40;99.90;;;;;;5113898;28;20084;-73
2023/04/24 02:19:44;;;;;;;21.83;8.82;;;10.30;99.90;;;;;;5114705;28;20027;-73
2023/04/24 02:22:10;;;;;;;19.73;11.02;;;10.30;99.90;;;;;;5112637;28;20036;-73
2023/04/24 02:24:36;;;;;;;20.27;9.63;;;10.30;99.90;;;;;;5113534;28;20024;-73
2023/04/24 02:27:02;;;;;;;19.05;9.77;;;10.30;99.90;;;;;;5113667;28;20028;-73
2023/04/24 02:29:28;;;;;;;22.50;11.25;;;10.30;99.90;;;;;;5113556;28;20118;-73
2023/04/24 02:31:54;;;;;;;21.45;9.73;;;10.30;99.90;;;;;;5114414;28;20353;-73
2023/04/24 02:34:19;;;;;;;21.02;9.95;;;10.30;99.90;;;;;;5113426;28;20083;-73
2023/04/24 02:36:45;;;;;;;21.35;10.20;;;10.30;99.90;;;;;;5114373;28;20016;-73
2023/04/24 02:39:10;;;;;;;20.83;10.15;;;10.30;99.90;;;;;;5114270;28;20133;-73
2023/04/24 02:41:36;;;;;;;16.25;7.25;;;10.20;99.90;;;;;;5113323;28;20032;-73
2023/04/24 02:44:02;;;;;;;23.80;11.48;;;10.30;99.90;;;;;;5113268;28;20024;-73
2023/04/24 02:46:28;;;;;;;15.68;7.28;;;10.30;99.90;;;;;;5096179;28;20043;-73
2023/04/24 02:48:53;;;;;;;23.42;10.95;;;10.20;99.90;;;;;;5113123;28;20036;-73
2023/04/24 02:51:19;;;;;;;21.75;10.63;;;10.20;99.90;;;;;;5114204;28;20035;-73
2023/04/24 02:53:44;;;;;;;20.60;11.00;;;10.30;99.90;;;;;;5113104;28;20058;-73
2023/04/24 02:56:12;;;;;;;24.73;10.48;;;10.30;99.90;;;;;;5113969;28;20178;-73
2023/04/24 02:58:38;;;;;;;23.83;10.82;;;10.20;99.90;;;;;;5113968;28;20031;-73
2023/04/24 03:01:04;;;;;;;23.77;10.32;;;10.20;99.90;;;;;;5113932;28;20028;-73
2023/04/24 03:03:30;;;;;;;23.77;10.75;;;10.20;99.90;;;;;;5113926;28;20024;-73
2023/04/24 03:05:56;;;;;;;19.30;9.77;;;10.30;99.90;;;;;;5113561;28;20052;-73
2023/04/24 03:08:22;;;;;;;21.25;11.70;;;10.20;99.90;;;;;;5112726;28;20024;-73
2023/04/24 03:10:48;;;;;;;20.80;10.32;;;10.30;99.90;;;;;;5113786;28;20021;-73
2023/04/24 03:13:14;;;;;;;16.92;9.43;;;10.30;99.90;;;;;;5113786;28;20073;-73
2023/04/24 03:15:40;;;;;;;23.02;10.95;;;10.30;99.90;;;;;;5113871;28;20025;-73
2023/04/24 03:18:06;;;;;;;22.60;10.32;;;10.30;99.80;;;;;;5113658;28;20111;-73
2023/04/24 03:20:31;;;;;;;22.63;9.95;;;10.30;99.80;;;;;;5112642;28;20016;-73
2023/04/24 03:22:57;;;;;;;20.98;10.13;;;10.20;99.80;;;;;;5112639;28;20397;-73
2023/04/24 03:25:22;;;;;;;20.27;10.70;;;10.20;99.80;;;;;;5112462;28;20040;-73
2023/04/24 03:27:48;;;;;;;22.05;11.38;;;10.20;99.90;;;;;;5112712;28;20030;-73
2023/04/24 03:30:14;;;;;;;18.85;10.02;;;10.20;99.80;;;;;;5113413;28;20036;-73
2023/04/24 03:32:39;;;;;;;19.35;9.73;;;10.20;99.80;;;;;;5112211;28;20028;-73
2023/04/24 03:35:08;;;;;;;21.40;10.38;;;10.20;99.50;;;;;;5113399;28;20028;-73
2023/04/24 03:37:33;;;;;;;22.00;9.50;;;10.20;99.60;;;;;;5113453;28;20016;-73
2023/04/24 03:39:59;;;;;;;15.98;8.27;;;10.20;99.70;;;;;;5113450;28;20039;-73
2023/04/24 03:42:25;;;;;;;18.85;10.18;;;10.20;99.80;;;;;;5113421;28;20044;-73
2023/04/24 03:44:50;;;;;;;17.48;8.95;;;10.20;99.80;;;;;;5112433;28;20042;-73
2023/04/24 03:47:16;;;;;;;21.35;9.82;;;10.20;99.70;;;;;;5078810;28;20028;-73
2023/04/24 03:49:41;;;;;;;18.77;10.10;;;10.20;99.80;;;;;;5112230;28;20036;-73
2023/04/24 03:52:07;;;;;;;22.55;10.65;;;10.20;99.70;;;;;;5113287;28;20026;-73
2023/04/24 03:54:33;;;;;;;17.98;9.50;;;10.10;99.70;;;;;;5112357;28;20031;-73
2023/04/24 03:56:58;;;;;;;16.98;9.13;;;10.20;99.70;;;;;;5113243;28;20042;-73
2023/04/24 03:59:24;;;;;;;16.58;7.93;;;10.20;99.50;;;;;;5113263;28;20032;-73
2023/04/24 04:01:50;;;;;;;19.63;9.23;;;10.10;99.60;;;;;;5113189;28;20028;-73
2023/04/24 04:04:15;;;;;;;19.45;10.52;;;10.10;99.40;;;;;;5113182;28;20032;-73
2023/04/24 04:06:42;;;;;;;14.07;7.35;;;10.10;99.50;;;;;;5113024;28;20067;-73
2023/04/24 04:09:08;;;;;;;14.23;7.22;;;10.10;99.50;;;;;;5113206;28;20035;-73
2023/04/24 04:11:35;;;;;;;12.82;6.22;;;10.10;99.20;;;;;;5113180;28;20035;-73
2023/04/24 04:14:00;;;;;;;14.80;8.52;;;10.10;99.30;;;;;;5113150;28;20047;-73
2023/04/24 04:16:26;;;;;;;17.48;7.60;;;10.10;99.40;;;;;;5113092;28;20024;-74
2023/04/24 04:18:52;;;;;;;12.23;6.65;;;10.10;99.30;;;;;;5113030;28;20035;-73
2023/04/24 04:21:17;;;;;;;17.70;8.27;;;10.10;99.30;;;;;;5112995;28;20032;-74
2023/04/24 04:23:43;;;;;;;18.65;9.15;;;10.00;99.40;;;;;;5112109;28;20028;-74
2023/04/24 04:26:09;;;;;;;15.00;7.93;;;10.00;99.40;;;;;;5112986;28;20028;-74
2023/04/24 04:28:34;;;;;;;21.08;8.50;;;10.10;99.40;;;;;;5112869;28;20020;-74
2023/04/24 04:31:00;;;;;;;13.73;7.35;;;10.00;99.40;;;;;;5112066;28;20059;-74
2023/04/24 04:33:26;;;;;;;16.33;8.05;;;10.00;99.40;;;;;;5111934;28;20050;-73
2023/04/24 04:35:52;;;;;;;18.73;8.13;;;10.00;99.40;;;;;;5112875;28;20024;-73
2023/04/24 04:38:19;;;;;;;15.80;8.35;;;10.00;99.30;;;;;;5112812;28;20035;-73
2023/04/24 04:40:45;;;;;;;14.68;6.63;;;10.00;99.30;;;;;;5112905;28;20016;-73
2023/04/24 04:43:13;;;;;;;12.88;6.30;;;9.90;99.20;;;;;;5111791;28;20063;-73
2023/04/24 04:45:41;;;;;;;13.02;6.65;;;9.90;99.20;;;;;;5115354;28;20027;-73
2023/04/24 04:48:12;;;;;;;13.95;7.20;;;9.90;99.30;;;;;;5115545;28;20025;-73
2023/04/24 04:50:38;;;;;;;12.00;5.88;;;9.90;99.30;;;;;;5116483;28;20028;-73
2023/04/24 04:53:04;;;;;;;10.48;5.68;;;9.90;99.40;;;;;;5116355;28;20032;-73
2023/04/24 04:55:30;;;;;;;15.38;6.80;;;9.80;99.40;;;;;;5116506;28;20046;-73
2023/04/24 04:57:56;;;;;;;18.65;7.43;;;9.80;99.90;;;;;;5115273;28;20017;-73
2023/04/24 05:00:23;;;;;;;11.32;5.50;;;9.80;99.70;;;;;;5115191;28;20056;-73
2023/04/24 05:02:49;;;;;;;11.15;5.95;;;9.80;99.80;;;;;;5115329;28;20017;-73
2023/04/24 05:05:16;;;;;;;11.75;6.15;;;9.80;99.90;;;;;;5115037;28;20082;-73
2023/04/24 05:07:42;;;;;;;14.35;7.32;;;9.80;99.90;;;;;;5116273;28;20020;-73
2023/04/24 05:10:08;;;;;;;13.15;7.70;;;9.80;99.90;;;;;;5116023;28;20032;-73
2023/04/24 05:12:34;;;;;;;12.10;6.60;;;9.80;99.90;;;;;;5115964;28;20032;-73
2023/04/24 05:14:59;;;;;;;14.98;6.47;;;9.70;99.90;;;;;;5115963;28;20051;-73
2023/04/24 05:17:25;;;;;;;10.82;5.88;;;9.80;99.90;;;;;;5115895;28;20028;-73
2023/04/24 05:19:51;;;;;;;11.73;5.43;;;9.70;99.90;;;;;;5114828;28;20400;-73
2023/04/24 05:22:19;;;;;;;12.05;5.72;;;9.70;99.90;;;;;;5115919;28;20088;-73
2023/04/24 05:24:45;;;;;;;10.68;5.47;;;9.70;99.90;;;;;;5115709;28;20016;-73
2023/04/24 05:27:11;;;;;;;11.90;5.40;;;9.70;99.90;;;;;;5115702;28;20035;-73
2023/04/24 05:29:36;;;;;;;12.00;6.07;;;9.70;99.90;;;;;;5115498;28;20035;-73
2023/04/24 05:32:02;;;;;;;12.63;6.15;;;9.70;99.90;;;;;;5115627;28;20040;-73
2023/04/24 05:34:27;;;;;;;9.88;5.22;;;9.70;99.90;;;;;;5115571;28;20028;-73
2023/04/24 05:36:53;;;;;;;9.20;5.30;;;9.70;99.90;;;;;;5114568;28;20088;-73
2023/04/24 05:39:19;;;;;;;11.05;5.80;;;9.80;99.90;;;;;;5114591;28;20028;-73
2023/04/24 05:41:45;;;;;;;10.10;5.32;;;9.80;99.90;;;;;;5115474;28;20020;-73
2023/04/24 05:44:10;;;;;;;9.90;5.63;;;9.90;99.90;;;;;;5115390;28;20078;-73
2023/04/24 05:46:36;;;;;;;10.52;5.68;;;9.90;99.90;;;;;;5115305;28;20036;-73
2023/04/24 05:49:02;;;;;;;9.13;4.88;;;10.00;99.90;;;;;;5114259;28;20036;-73
2023/04/24 05:51:28;;;;;;;12.13;5.63;;;10.00;99.90;;;;;;5115253;28;20081;-73
2023/04/24 05:53:54;;;;;;;10.63;5.20;;;10.00;99.90;;;;;;5114245;28;20036;-73
2023/04/24 05:56:20;;;;;;;10.95;5.90;;;10.00;99.90;;;;;;5114899;28;20035;-73
2023/04/24 05:58:46;;;;;;;11.80;5.25;;;10.00;99.90;;;;;;5115115;28;20024;-73
2023/04/24 06:01:13;;;;;;;10.40;5.55;;;10.00;99.90;;;;;;5114038;28;20043;-73
2023/04/24 06:03:40;;;;;;;11.00;5.18;;;10.00;99.90;;;;;;5115025;28;20088;-74
2023/04/24 06:06:06;;;;;;;8.98;4.90;;;10.00;99.90;;;;;;5114755;28;20056;-73
2023/04/24 06:08:32;;;;;;;8.45;5.30;;;10.00;99.90;;;;;;5114870;28;20020;-73
2023/04/24 06:10:58;;;;;;;9.95;5.63;;;10.00;99.90;;;;;;5113821;28;20023;-73
2023/04/24 06:13:24;;;;;;;10.60;4.75;;;10.00;99.90;;;;;;5114838;28;20083;-73
2023/04/24 06:15:49;;;;;;;9.50;5.20;;;10.10;99.90;;;;;;5113833;28;20027;-73
2023/04/24 06:18:15;;;;;;;9.52;4.93;;;10.20;99.90;;;;;;5113845;28;20033;-73
2023/04/24 06:20:41;;;;;;;7.40;3.67;;;10.20;99.90;;;;;;5114655;28;20024;-73
2023/04/24 06:23:06;;;;;;;7.47;3.20;;;10.20;99.90;;;;;;5114576;28;20077;-73
2023/04/24 06:25:32;;;;;;;5.70;2.90;;;10.20;99.10;;;;;;5114708;28;20026;-73
2023/04/24 06:27:58;;;;;;;5.63;2.75;;;10.20;98.80;;;;;;5096830;28;20089;-73
2023/04/24 06:30:23;;;;;;;5.45;2.53;;;10.10;98.80;;;;;;5114394;28;20036;-73
2023/04/24 06:32:49;;;;;;;3.63;1.88;;;10.10;98.30;;;;;;5114434;28;20058;-73
2023/04/24 06:35:15;;;;;;;5.88;2.50;;;10.10;98.70;;;;;;5114257;28;20028;-73
2023/04/24 06:37:42;;;;;;;3.47;1.80;;;10.10;98.60;;;;;;5114358;28;20035;-73
2023/04/24 06:40:08;;;;;;;3.47;1.55;;;10.10;98.50;;;;;;5114294;28;20024;-73
2023/04/24 06:42:34;;;;;;;2.67;1.45;;;10.20;98.60;;;;;;5113284;28;20020;-73
2023/04/24 06:45:00;;;;;;;2.75;1.60;;;10.30;98.60;;;;;;5113155;28;20040;-73
2023/04/24 06:47:26;;;;;;;2.53;1.30;;;10.30;98.60;;;;;;5114218;28;20024;-73
2023/04/24 06:49:52;;;;;;;1.83;1.05;;;10.30;98.50;;;;;;5114029;28;20036;-73
2023/04/24 06:52:19;;;;;;;1.92;1.30;;;10.40;98.40;;;;;;5114095;28;20027;-73
2023/04/24 06:54:45;;;;;;;1.80;0.93;;;10.30;97.90;;;;;;5114010;28;20024;-73
2023/04/24 06:57:10;;;;;;;1.55;1.10;;;10.30;98.00;;;;;;5114009;28;20032;-73
2023/04/24 06:59:36;;;;;;;1.42;0.70;;;10.30;98.30;;;;;;5113984;28;20028;-73
2023/04/24 07:02:02;;;;;;;1.50;1.00;;;10.40;98.30;;;;;;5114049;28;20028;-73
2023/04/24 07:04:28;;;;;;;1.80;0.95;;;10.30;98.20;;;;;;5112946;28;20099;-73
2023/04/24 07:06:55;;;;;;;1.25;0.68;;;10.30;98.30;;;;;;5113275;28;20064;-73
2023/04/24 07:09:23;;;;;;;2.33;0.85;;;10.40;98.30;;;;;;5112643;28;20032;-73
2023/04/24 07:11:49;;;;;;;0.88;0.55;;;10.40;98.40;;;;;;5113826;28;20090;-73
2023/04/24 07:14:15;;;;;;;0.60;0.50;;;10.40;98.20;;;;;;5112757;28;20020;-73
2023/04/24 07:16:41;;;;;;;0.60;0.43;;;10.30;98.20;;;;;;5112699;28;20516;-73
2023/04/24 07:19:07;;;;;;;2.13;0.68;;;10.30;98.30;;;;;;5113655;28;20048;-73
2023/04/24 07:21:33;;;;;;;1.40;0.57;;;10.30;98.40;;;;;;5113649;28;20039;-73
2023/04/24 07:23:59;;;;;;;1.58;0.73;;;10.30;98.50;;;;;;5112640;28;20024;-73
2023/04/24 07:26:26;;;;;;;0.88;0.70;;;10.30;98.50;;;;;;5113662;28;20023;-73
2023/04/24 07:28:52;;;;;;;1.65;1.00;;;10.30;98.50;;;;;;5095655;28;20020;-73
2023/04/24 07:31:18;;;;;;;3.55;1.00;;;10.30;98.60;;;;;;5113551;28;20027;-73
2023/04/24 07:33:44;;;;;;;2.00;1.40;;;10.30;98.80;;;;;;5113562;28;20021;-73
2023/04/24 07:36:15;;;;;;;4.88;2.20;;;10.30;99.00;;;;;;5113549;28;20024;-74
2023/04/24 07:38:43;;;;;;;4.68;2.70;;;10.30;99.20;;;;;;5096316;28;20088;-73
2023/04/24 07:41:09;;;;;;;5.60;3.17;;;10.30;99.30;;;;;;5079183;28;20028;-73
2023/04/24 07:43:35;;;;;;;8.45;4.35;;;10.30;99.40;;;;;;5113380;28;20088;-73
2023/04/24 07:46:01;;;;;;;9.23;5.03;;;10.20;99.30;;;;;;5113599;28;20028;-73
2023/04/24 07:48:26;;;;;;;9.45;5.53;;;10.20;99.30;;;;;;5113247;28;20021;-73
2023/04/24 07:50:53;;;;;;;10.63;5.65;;;10.20;99.10;;;;;;5113294;28;20101;-73
2023/04/24 07:53:18;;;;;;;11.10;5.60;;;10.20;98.90;;;;;;5113372;28;20040;-73
2023/04/24 07:55:44;;;;;;;9.77;5.22;;;10.20;98.90;;;;;;5112271;28;20032;-74
2023/04/24 07:58:09;;;;;;;11.80;5.45;;;10.20;98.80;;;;;;5113264;28;20029;-73
2023/04/24 08:00:35;;;;;;;11.60;5.40;;;10.20;98.90;;;;;;5113323;28;20031;-73
2023/04/24 08:03:01;;;;;;;12.75;5.53;;;10.10;98.80;;;;;;5113185;28;20062;-73
2023/04/24 08:05:28;;;;;;;12.68;6.05;;;10.10;99.00;;;;;;5112913;28;20116;-73
2023/04/24 08:07:54;;;;;;;11.15;5.65;;;10.10;99.10;;;;;;5113169;28;20020;-73
2023/04/24 08:10:21;;;;;;;11.60;5.88;;;10.10;99.00;;;;;;5112151;28;20043;-73
2023/04/24 08:12:46;;;;;;;9.60;5.28;;;10.10;99.00;;;;;;5112001;28;20036;-73
2023/04/24 08:15:12;;;;;;;13.02;5.47;;;10.10;98.80;;;;;;5111964;28;20028;-73
2023/04/24 08:17:38;;;;;;;13.45;5.07;;;10.10;98.80;;;;;;5112970;28;20032;-73
2023/04/24 08:20:05;;;;;;;10.80;5.35;;;10.10;98.80;;;;;;5115406;28;20043;-74
2023/04/24 08:22:30;;;;;;;10.15;4.38;;;10.10;98.80;;;;;;5116913;28;20031;-74
2023/04/24 08:24:57;;;;;;;11.25;4.88;;;10.10;98.80;;;;;;5116813;28;20032;-74
2023/04/24 08:27:23;;;;;;;11.10;4.88;;;10.10;98.90;;;;;;5116810;28;20046;-73
2023/04/24 08:29:49;;;;;;;11.57;4.90;;;10.10;98.90;;;;;;5116814;28;20034;-73
2023/04/24 08:32:15;;;;;;;10.07;4.68;;;10.10;98.90;;;;;;5116688;28;20020;-74
2023/04/24 08:34:41;;;;;;;11.55;5.13;;;10.10;99.00;;;;;;5115516;28;20024;-75
2023/04/24 08:37:06;;;;;;;12.25;4.65;;;10.10;99.10;;;;;;5082025;28;20067;-74
2023/04/24 08:39:32;;;;;;;11.85;4.50;;;10.20;99.10;;;;;;5115581;28;20097;-74
2023/04/24 08:42:05;;;;;;;13.73;5.45;;;10.20;99.20;;;;;;5115651;28;20486;-75
2023/04/24 08:44:34;;;;;;;;;;;10.20;99.10;;;;;;5116158;28;20092;-74
2023/04/24 08:47:02;;;;;;;8.43;4.15;;;10.20;99.20;;;;;;5116643;28;19908;-75
2023/04/24 08:49:28;;;;;;;8.68;4.57;;;10.20;99.20;;;;;;5116327;28;20036;-73
2023/04/24 08:51:54;;;;;;;10.82;3.40;;;10.20;99.00;;;;;;5116326;28;20031;-73
2023/04/24 08:54:21;;;;;;;7.68;2.75;;;10.10;98.80;;;;;;5116300;28;20048;-72
2023/04/24 08:56:48;;;;;;;10.85;2.97;;;10.10;98.70;;;;;;5116233;28;20020;-72
2023/04/24 08:59:14;;;;;;;9.23;3.03;;;10.10;98.30;;;;;;5116266;28;20034;-73
2023/04/24 09:01:40;;;;;;;9.02;2.90;;;10.00;98.60;;;;;;5116192;28;20028;-73
2023/04/24 09:04:09;;;;;;;7.20;3.05;;;10.10;98.50;;;;;;5116162;28;20091;-73
2023/04/24 09:06:36;;;;;;;9.05;2.90;;;10.10;98.50;;;;;;5115762;28;20572;-73
2023/04/24 09:09:03;;;;;;;9.05;3.15;;;10.10;98.40;;;;;;5098111;28;20056;-73
2023/04/24 09:11:30;;;;;;;10.93;3.08;;;10.10;98.50;;;;;;5116019;28;20031;-73
2023/04/24 09:13:56;;;;;;;9.27;2.72;;;10.10;98.40;;;;;;5115940;28;20020;-73
2023/04/24 09:16:24;;;;;;;7.28;2.88;;;10.20;98.50;;;;;;5115879;28;20035;-73
2023/04/24 09:18:50;;;;;;;6.72;2.55;;;10.20;98.60;;;;;;5115861;28;20020;-72
2023/04/24 09:21:16;;;;;;;8.20;2.65;;;10.20;98.20;;;;;;5114815;28;20027;-73
2023/04/24 09:23:41;;;;;;;5.45;2.42;;;10.20;98.20;;;;;;5097853;28;20028;-73
2023/04/24 09:26:09;;;;;;;8.48;2.75;;;10.20;98.30;;;;;;5114679;28;20043;-72
2023/04/24 09:28:40;;;;;;;8.18;2.80;;;10.30;98.20;;;;;;5115598;28;20088;-73
2023/04/24 09:31:09;;;;;;;9.45;3.38;;;10.30;98.20;;;;;;5114049;28;20046;-74
2023/04/24 09:33:35;;;;;;;10.20;2.65;;;10.30;97.90;;;;;;5114429;28;20016;-74
2023/04/24 09:36:02;;;;;;;5.53;2.13;;;10.40;98.00;;;;;;5114505;28;20028;-75
2023/04/24 09:38:36;;;;;;;5.53;1.95;;;10.40;97.80;;;;;;5115539;28;20019;-73
2023/04/24 09:41:04;;;;;;;8.43;2.40;;;10.50;97.60;;;;;;5114466;28;20032;-73
2023/04/24 09:43:30;;;;;;;9.10;2.78;;;10.50;97.30;;;;;;5115431;28;20020;-74
2023/04/24 09:45:58;;;;;;;7.93;2.63;;;10.50;97.00;;;;;;5114302;28;20392;-74
2023/04/24 09:48:31;;;;;;;5.55;1.98;;;10.50;97.00;;;;;;5115159;28;20021;-74
2023/04/24 09:50:57;;;;;;;6.20;2.25;;;10.50;96.30;;;;;;5115229;28;20027;-73
2023/04/24 09:53:27;;;;;;;6.65;2.35;;;10.50;96.40;;;;;;5114168;28;20099;-72
2023/04/24 09:55:53;;;;;;;4.75;1.67;;;10.60;96.70;;;;;;5114213;28;20024;-74
2023/04/24 09:58:26;;;;;;;8.57;2.25;;;10.60;95.60;;;;;;5114961;28;20023;-73
2023/04/24 10:00:54;;;;;;;3.78;1.85;;;10.70;95.70;;;;;;5115084;28;20027;-74
2023/04/24 10:03:20;;;;;;;13.02;2.33;;;10.70;95.50;;;;;;5114930;28;20024;-74
2023/04/24 10:05:46;;;;;;;5.03;1.80;;;10.80;95.40;;;;;;5114564;28;20052;-73
2023/04/24 10:08:13;;;;;;;6.28;1.95;;;10.80;94.50;;;;;;5113822;28;20088;-73
2023/04/24 10:10:41;;;;;;;6.03;2.03;;;10.80;94.00;;;;;;5114751;28;20449;-73
2023/04/24 10:13:08;;;;;;;7.80;2.08;;;10.80;94.00;;;;;;5114784;28;20024;-74
2023/04/24 10:15:35;;;;;;;4.53;1.67;;;10.80;94.00;;;;;;5113857;28;20023;-75
2023/04/24 10:18:01;;;;;;;6.50;2.25;;;10.80;93.20;;;;;;5114693;28;20024;-75
2023/04/24 10:20:31;;;;;;;5.32;1.95;;;10.80;93.00;;;;;;5114672;28;20020;-75
2023/04/24 10:22:58;;;;;;;2.90;1.50;;;10.80;92.90;;;;;;5114806;28;20076;-75
2023/04/24 10:25:28;;;;;;;6.65;2.10;;;10.80;93.40;;;;;;5114539;28;20032;-73
2023/04/24 10:27:57;;;;;;;5.72;2.03;;;10.80;93.60;;;;;;5114548;28;20036;-74
2023/04/24 10:30:23;;;;;;;4.90;1.60;;;10.80;93.70;;;;;;5114371;28;20050;-73
2023/04/24 10:32:49;;;;;;;6.65;1.83;;;10.80;93.20;;;;;;5113593;28;20031;-73
2023/04/24 10:35:17;;;;;;;5.35;1.63;;;10.70;92.80;;;;;;5114352;28;20045;-73
2023/04/24 10:37:48;;;;;;;7.93;2.10;;;10.70;92.90;;;;;;5114342;28;20023;-73
2023/04/24 10:40:24;;;;;;;10.15;2.40;;;10.70;92.50;;;;;;5113427;28;20047;-73
2023/04/24 10:42:53;;;;;;;6.85;2.17;;;10.70;93.10;;;;;;5113421;28;20052;-74
2023/04/24 10:45:21;;;;;;;5.55;1.60;;;10.80;93.20;;;;;;5114128;28;20020;-74
2023/04/24 10:47:58;;;;;;;2.92;1.27;;;10.80;92.80;;;;;;5114320;28;20024;-75
2023/04/24 10:50:26;;;;;;;7.95;1.90;;;10.80;92.80;;;;;;5113046;28;20108;-75
2023/04/24 10:52:54;;;;;;;6.55;2.90;;;10.80;92.60;;;;;;5113177;28;20401;-74
2023/04/24 10:55:39;;;;;;;4.05;1.70;;;10.80;92.40;;;;;;5114095;28;20016;-75
2023/04/24 10:58:05;;;;;;;2.33;1.10;;;10.80;92.30;;;;;;5114062;28;20024;-74
2023/04/24 11:00:30;;;;;;;3.92;1.30;;;10.80;91.30;;;;;;5113914;28;20101;-74
2023/04/24 11:02:57;;;;;;;1.52;0.75;;;10.70;91.40;;;;;;5113879;28;20476;-75
2023/04/24 11:05:58;;;;;;;2.95;1.13;;;10.60;91.10;;;;;;5113543;28;20050;-75
2023/04/24 11:08:38;;;;;;;3.42;1.40;;;10.60;91.60;;;;;;5113738;28;20036;-74
2023/04/24 11:11:15;;;;;;;3.80;1.00;;;10.60;91.80;;;;;;5113914;28;20023;-75
2023/04/24 11:14:06;;;;;;;3.33;1.30;;;10.70;92.10;;;;;;5113796;28;20020;-74
2023/04/24 11:16:44;;;;;;;2.92;1.13;;;10.80;92.20;;;;;;5104097;28;20032;-72
2023/04/24 11:19:16;;;;;;;3.78;1.08;;;10.90;92.70;;;;;;5113905;28;20028;-74
2023/04/24 11:22:13;;;;;;;4.22;1.25;;;11.00;91.50;;;;;;5113686;28;20024;-73
2023/04/24 11:24:50;;;;;;;4.25;0.98;;;11.10;91.30;;;;;;5113723;28;20027;-74
2023/04/24 11:27:19;;;;;;;1.85;1.17;;;11.10;91.30;;;;;;5113660;28;20083;-74
2023/04/24 11:29:49;;;;;;;1.48;0.68;;;11.10;90.80;;;;;;5113503;28;20028;-74
2023/04/24 11:32:23;;;;;;;2.70;1.05;;;11.00;90.80;;;;;;5113563;28;20050;-74
2023/04/24 11:34:51;;;;;;;3.40;1.67;;;11.00;90.80;;;;;;5113461;28;20021;-74
2023/04/24 11:37:17;;;;;;;2.70;1.25;;;11.00;90.60;;;;;;5112704;28;20020;-74
2023/04/24 11:39:43;;;;;;;2.28;0.90;;;11.00;90.60;;;;;;5113513;28;20047;-74
2023/04/24 11:42:09;;;;;;;2.70;1.00;;;11.10;91.00;;;;;;5112391;28;20032;-74
2023/04/24 11:44:37;;;;;;;1.23;0.60;;;11.10;90.00;;;;;;5113410;28;20080;-74
2023/04/24 11:47:09;;;;;;;3.88;0.90;;;11.10;89.50;;;;;;5112324;28;20032;-74
2023/04/24 11:49:38;;;;;;;;;;;11.00;88.80;;;;;;5113004;28;20035;-74
2023/04/24 11:52:04;;;;;;;1.27;0.80;;;11.00;89.60;;;;;;5112278;28;19904;-74
2023/04/24 11:54:30;;;;;;;1.92;1.00;;;10.90;89.20;;;;;;5115802;28;20051;-72
2023/04/24 11:56:56;;;;;;;2.45;1.20;;;10.90;89.60;;;;;;5117455;28;20016;-72
2023/04/24 11:59:22;;;;;;;3.40;1.15;;;10.90;90.10;;;;;;5117152;28;20039;-72
2023/04/24 12:01:49;;;;;;;2.97;0.85;;;10.90;90.50;;;;;;5117301;28;20408;-72
2023/04/24 12:04:17;;;;;;;2.65;1.00;;;10.90;90.00;;;;;;5117449;28;20028;-72
2023/04/24 12:07:03;;;;;;;2.78;1.52;;;10.80;89.40;;;;;;5117093;28;20050;-74
2023/04/24 12:09:29;;;;;;;1.52;0.70;;;10.80;90.00;;;;;;5117370;28;20031;-74
2023/04/24 12:11:58;;;;;;;1.35;0.85;;;10.80;89.60;;;;;;5117195;28;20075;-74
2023/04/24 12:14:24;;;;;;;2.42;1.08;;;10.80;89.60;;;;;;5117255;28;20020;-74
2023/04/24 12:16:50;;;;;;;4.20;1.35;;;10.80;90.00;;;;;;5117145;28;20027;-74
2023/04/24 12:19:23;;;;;;;2.60;1.45;;;10.80;90.00;;;;;;5117068;28;20027;-74
2023/04/24 12:22:03;;;;;;;2.60;1.50;;;10.80;90.20;;;;;;5116998;28;20123;-74
2023/04/24 12:24:30;;;;;;;4.05;1.70;;;10.90;90.00;;;;;;5115859;28;20052;-74
2023/04/24 12:26:56;;;;;;;4.22;1.70;;;10.90;90.50;;;;;;5116893;28;20051;-74
2023/04/24 12:29:22;;;;;;;3.85;1.23;;;11.00;90.40;;;;;;5115776;28;20052;-74
2023/04/24 12:31:47;;;;;;;2.42;1.60;;;11.10;91.50;;;;;;5116863;28;20053;-74
2023/04/24 12:34:24;;;;;;;3.95;1.50;;;11.20;89.80;;;;;;5116684;28;20028;-74
2023/04/24 12:36:50;;;;;;;3.00;1.33;;;11.30;89.90;;;;;;5115879;28;20027;-74
2023/04/24 12:39:19;;;;;;;8.95;2.05;;;11.40;88.90;;;;;;5116705;28;20032;-73
2023/04/24 12:41:59;;;;;;;2.78;1.50;;;11.40;89.10;;;;;;5116591;28;20488;-74